sensor_id;sensor_type;location;lat;lon;timestamp;pressure;altitude;pressure_sealevel;temperature
8227;BMP180;4154;48.810;9.012;2024-02-28T00:01:59;97003.00;;;7.40
8227;BMP180;4154;48.810;9.012;2024-02-28T00:04:25;97012.00;;;7.40
8227;BMP180;4154;48.810;9.012;2024-02-28T00:06:50;97007.00;;;7.40
8227;BMP180;4154;48.810;9.012;2024-02-28T00:09:16;97011.00;;;7.30
8227;BMP180;4154;48.810;9.012;2024-02-28T00:11:46;97004.00;;;7.20
8227;BMP180;4154;48.810;9.012;2024-02-28T00:14:15;97009.00;;;7.20
8227;BMP180;4154;48.810;9.012;2024-02-28T00:16:46;97000.00;;;7.10
8227;BMP180;4154;48.810;9.012;2024-02-28T00:19:12;97000.00;;;7.00
8227;BMP180;4154;48.810;9.012;2024-02-28T00:21:41;97007.00;;;6.90
8227;BMP180;4154;48.810;9.012;2024-02-28T00:24:07;97016.00;;;6.90
8227;BMP180;4154;48.810;9.012;2024-02-28T00:26:33;97014.00;;;6.90
8227;BMP180;4154;48.810;9.012;2024-02-28T00:28:59;97010.00;;;6.80
8227;BMP180;4154;48.810;9.012;2024-02-28T00:31:25;97012.00;;;6.80
8227;BMP180;4154;48.810;9.012;2024-02-28T00:33:51;97020.00;;;6.70
8227;BMP180;4154;48.810;9.012;2024-02-28T00:36:16;97014.00;;;6.70
8227;BMP180;4154;48.810;9.012;2024-02-28T00:38:43;97026.00;;;6.70
8227;BMP180;4154;48.810;9.012;2024-02-28T00:41:08;97029.00;;;6.70
8227;BMP180;4154;48.810;9.012;2024-02-28T00:43:34;97016.00;;;6.70
8227;BMP180;4154;48.810;9.012;2024-02-28T00:46:00;97023.00;;;6.70
8227;BMP180;4154;48.810;9.012;2024-02-28T00:48:26;97024.00;;;6.60
8227;BMP180;4154;48.810;9.012;2024-02-28T00:50:52;97015.00;;;6.70
8227;BMP180;4154;48.810;9.012;2024-02-28T00:53:19;97022.00;;;6.60
8227;BMP180;4154;48.810;9.012;2024-02-28T00:55:45;97026.00;;;6.60
8227;BMP180;4154;48.810;9.012;2024-02-28T00:58:11;97028.00;;;6.60
8227;BMP180;4154;48.810;9.012;2024-02-28T01:00:37;97024.00;;;6.60
8227;BMP180;4154;48.810;9.012;2024-02-28T01:03:03;97027.00;;;6.50
8227;BMP180;4154;48.810;9.012;2024-02-28T01:05:34;97018.00;;;6.50
8227;BMP180;4154;48.810;9.012;2024-02-28T01:08:00;97015.00;;;6.40
8227;BMP180;4154;48.810;9.012;2024-02-28T01:10:26;97006.00;;;6.40
8227;BMP180;4154;48.810;9.012;2024-02-28T01:12:51;97021.00;;;6.50
8227;BMP180;4154;48.810;9.012;2024-02-28T01:15:17;97021.00;;;6.30
8227;BMP180;4154;48.810;9.012;2024-02-28T01:17:43;97022.00;;;6.40
8227;BMP180;4154;48.810;9.012;2024-02-28T01:20:09;97020.00;;;6.40
8227;BMP180;4154;48.810;9.012;2024-02-28T01:22:35;97027.00;;;6.30
8227;BMP180;4154;48.810;9.012;2024-02-28T01:25:02;97027.00;;;6.30
8227;BMP180;4154;48.810;9.012;2024-02-28T01:27:28;97030.00;;;6.30
8227;BMP180;4154;48.810;9.012;2024-02-28T01:29:54;97023.00;;;6.10
8227;BMP180;4154;48.810;9.012;2024-02-28T01:32:20;97014.00;;;6.10
8227;BMP180;4154;48.810;9.012;2024-02-28T01:34:46;97019.00;;;6.00
8227;BMP180;4154;48.810;9.012;2024-02-28T01:37:13;97026.00;;;5.90
8227;BMP180;4154;48.810;9.012;2024-02-28T01:39:39;97018.00;;;5.90
8227;BMP180;4154;48.810;9.012;2024-02-28T01:42:04;97028.00;;;5.90
8227;BMP180;4154;48.810;9.012;2024-02-28T01:44:30;97030.00;;;6.00
8227;BMP180;4154;48.810;9.012;2024-02-28T01:46:56;97028.00;;;6.00
8227;BMP180;4154;48.810;9.012;2024-02-28T01:49:24;97036.00;;;6.00
8227;BMP180;4154;48.810;9.012;2024-02-28T01:51:51;97042.00;;;5.90
8227;BMP180;4154;48.810;9.012;2024-02-28T01:54:20;97032.00;;;5.90
8227;BMP180;4154;48.810;9.012;2024-02-28T01:56:46;97038.00;;;5.90
8227;BMP180;4154;48.810;9.012;2024-02-28T01:59:13;97031.00;;;5.90
8227;BMP180;4154;48.810;9.012;2024-02-28T02:01:38;97042.00;;;5.90
8227;BMP180;4154;48.810;9.012;2024-02-28T02:04:05;97046.00;;;6.00
8227;BMP180;4154;48.810;9.012;2024-02-28T02:06:32;97048.00;;;6.00
8227;BMP180;4154;48.810;9.012;2024-02-28T02:08:58;97046.00;;;6.00
8227;BMP180;4154;48.810;9.012;2024-02-28T02:11:25;97052.00;;;6.00
8227;BMP180;4154;48.810;9.012;2024-02-28T02:13:52;97055.00;;;6.10
8227;BMP180;4154;48.810;9.012;2024-02-28T02:16:19;97051.00;;;6.10
8227;BMP180;4154;48.810;9.012;2024-02-28T02:18:51;97052.00;;;6.10
8227;BMP180;4154;48.810;9.012;2024-02-28T02:21:20;97057.00;;;6.20
8227;BMP180;4154;48.810;9.012;2024-02-28T02:23:48;97061.00;;;6.20
8227;BMP180;4154;48.810;9.012;2024-02-28T02:26:13;97057.00;;;6.20
8227;BMP180;4154;48.810;9.012;2024-02-28T02:28:39;97060.00;;;6.30
8227;BMP180;4154;48.810;9.012;2024-02-28T02:31:04;97058.00;;;6.20
8227;BMP180;4154;48.810;9.012;2024-02-28T02:33:30;97070.00;;;6.30
8227;BMP180;4154;48.810;9.012;2024-02-28T02:35:56;97075.00;;;6.30
8227;BMP180;4154;48.810;9.012;2024-02-28T02:38:22;97065.00;;;6.20
8227;BMP180;4154;48.810;9.012;2024-02-28T02:40:51;97062.00;;;6.20
8227;BMP180;4154;48.810;9.012;2024-02-28T02:43:18;97077.00;;;6.10
8227;BMP180;4154;48.810;9.012;2024-02-28T02:45:44;97084.00;;;6.20
8227;BMP180;4154;48.810;9.012;2024-02-28T02:48:10;97086.00;;;6.10
8227;BMP180;4154;48.810;9.012;2024-02-28T02:50:36;97086.00;;;6.10
8227;BMP180;4154;48.810;9.012;2024-02-28T02:53:03;97079.00;;;6.00
8227;BMP180;4154;48.810;9.012;2024-02-28T02:55:29;97088.00;;;6.00
8227;BMP180;4154;48.810;9.012;2024-02-28T02:57:56;97092.00;;;5.90
8227;BMP180;4154;48.810;9.012;2024-02-28T03:00:22;97094.00;;;6.10
8227;BMP180;4154;48.810;9.012;2024-02-28T03:02:48;97097.00;;;6.00
8227;BMP180;4154;48.810;9.012;2024-02-28T03:05:13;97098.00;;;6.00
8227;BMP180;4154;48.810;9.012;2024-02-28T03:07:39;97093.00;;;6.00
8227;BMP180;4154;48.810;9.012;2024-02-28T03:10:06;97092.00;;;6.00
8227;BMP180;4154;48.810;9.012;2024-02-28T03:12:31;97106.00;;;6.00
8227;BMP180;4154;48.810;9.012;2024-02-28T03:14:57;97101.00;;;6.00
8227;BMP180;4154;48.810;9.012;2024-02-28T03:17:23;97111.00;;;5.90
8227;BMP180;4154;48.810;9.012;2024-02-28T03:19:49;97102.00;;;6.00
8227;BMP180;4154;48.810;9.012;2024-02-28T03:22:15;97113.00;;;5.90
8227;BMP180;4154;48.810;9.012;2024-02-28T03:24:40;97112.00;;;6.00
8227;BMP180;4154;48.810;9.012;2024-02-28T03:27:07;97119.00;;;6.00
8227;BMP180;4154;48.810;9.012;2024-02-28T03:29:32;97118.00;;;6.00
8227;BMP180;4154;48.810;9.012;2024-02-28T03:31:58;97131.00;;;6.00
8227;BMP180;4154;48.810;9.012;2024-02-28T03:34:24;97136.00;;;6.00
8227;BMP180;4154;48.810;9.012;2024-02-28T03:36:50;97132.00;;;5.90
8227;BMP180;4154;48.810;9.012;2024-02-28T03:39:16;97136.00;;;6.00
8227;BMP180;4154;48.810;9.012;2024-02-28T03:41:42;97137.00;;;5.90
8227;BMP180;4154;48.810;9.012;2024-02-28T03:44:08;97143.00;;;6.00
8227;BMP180;4154;48.810;9.012;2024-02-28T03:46:34;97146.00;;;6.00
8227;BMP180;4154;48.810;9.012;2024-02-28T03:48:59;97150.00;;;6.00
8227;BMP180;4154;48.810;9.012;2024-02-28T03:51:25;97156.00;;;6.00
8227;BMP180;4154;48.810;9.012;2024-02-28T03:53:51;97151.00;;;6.20
8227;BMP180;4154;48.810;9.012;2024-02-28T03:56:24;97161.00;;;6.20
8227;BMP180;4154;48.810;9.012;2024-02-28T03:58:54;97159.00;;;6.20
8227;BMP180;4154;48.810;9.012;2024-02-28T04:01:19;97168.00;;;6.10
8227;BMP180;4154;48.810;9.012;2024-02-28T04:03:45;97170.00;;;6.10
8227;BMP180;4154;48.810;9.012;2024-02-28T04:06:11;97176.00;;;6.10
8227;BMP180;4154;48.810;9.012;2024-02-28T04:08:37;97166.00;;;6.10
8227;BMP180;4154;48.810;9.012;2024-02-28T04:11:03;97177.00;;;6.20
8227;BMP180;4154;48.810;9.012;2024-02-28T04:13:29;97177.00;;;6.10
8227;BMP180;4154;48.810;9.012;2024-02-28T04:15:54;97178.00;;;6.20
8227;BMP180;4154;48.810;9.012;2024-02-28T04:18:21;97175.00;;;6.10
8227;BMP180;4154;48.810;9.012;2024-02-28T04:20:46;97172.00;;;6.10
8227;BMP180;4154;48.810;9.012;2024-02-28T04:23:12;97177.00;;;6.00
8227;BMP180;4154;48.810;9.012;2024-02-28T04:25:37;97176.00;;;6.00
8227;BMP180;4154;48.810;9.012;2024-02-28T04:28:08;97178.00;;;5.90
8227;BMP180;4154;48.810;9.012;2024-02-28T04:30:34;97169.00;;;5.90
8227;BMP180;4154;48.810;9.012;2024-02-28T04:33:00;97184.00;;;5.90
8227;BMP180;4154;48.810;9.012;2024-02-28T04:35:26;97182.00;;;5.90
8227;BMP180;4154;48.810;9.012;2024-02-28T04:37:52;97180.00;;;6.00
8227;BMP180;4154;48.810;9.012;2024-02-28T04:40:17;97182.00;;;5.90
8227;BMP180;4154;48.810;9.012;2024-02-28T04:42:43;97176.00;;;6.00
8227;BMP180;4154;48.810;9.012;2024-02-28T04:45:09;97183.00;;;5.90
8227;BMP180;4154;48.810;9.012;2024-02-28T04:47:37;97189.00;;;5.90
8227;BMP180;4154;48.810;9.012;2024-02-28T04:50:04;97194.00;;;5.90
8227;BMP180;4154;48.810;9.012;2024-02-28T04:52:33;97191.00;;;5.90
8227;BMP180;4154;48.810;9.012;2024-02-28T04:55:00;97194.00;;;5.80
8227;BMP180;4154;48.810;9.012;2024-02-28T04:57:25;97199.00;;;5.90
8227;BMP180;4154;48.810;9.012;2024-02-28T04:59:52;97198.00;;;5.80
8227;BMP180;4154;48.810;9.012;2024-02-28T05:02:18;97194.00;;;5.80
8227;BMP180;4154;48.810;9.012;2024-02-28T05:04:43;97190.00;;;5.80
8227;BMP180;4154;48.810;9.012;2024-02-28T05:07:09;97204.00;;;5.90
8227;BMP180;4154;48.810;9.012;2024-02-28T05:09:35;97197.00;;;5.90
8227;BMP180;4154;48.810;9.012;2024-02-28T05:12:02;97199.00;;;5.80
8227;BMP180;4154;48.810;9.012;2024-02-28T05:14:28;97196.00;;;5.80
8227;BMP180;4154;48.810;9.012;2024-02-28T05:16:54;97196.00;;;5.80
8227;BMP180;4154;48.810;9.012;2024-02-28T05:19:19;97194.00;;;5.80
8227;BMP180;4154;48.810;9.012;2024-02-28T05:21:45;97194.00;;;5.80
8227;BMP180;4154;48.810;9.012;2024-02-28T05:24:12;97194.00;;;5.70
8227;BMP180;4154;48.810;9.012;2024-02-28T05:26:38;97199.00;;;5.70
8227;BMP180;4154;48.810;9.012;2024-02-28T05:29:05;97204.00;;;5.70
8227;BMP180;4154;48.810;9.012;2024-02-28T05:31:32;97191.00;;;5.70
8227;BMP180;4154;48.810;9.012;2024-02-28T05:33:59;97192.00;;;5.70
8227;BMP180;4154;48.810;9.012;2024-02-28T05:36:27;97204.00;;;5.60
8227;BMP180;4154;48.810;9.012;2024-02-28T05:38:55;97208.00;;;5.60
8227;BMP180;4154;48.810;9.012;2024-02-28T05:41:21;97215.00;;;5.50
8227;BMP180;4154;48.810;9.012;2024-02-28T05:43:48;97222.00;;;5.60
8227;BMP180;4154;48.810;9.012;2024-02-28T05:46:18;97219.00;;;5.50
8227;BMP180;4154;48.810;9.012;2024-02-28T05:48:44;97217.00;;;5.50
8227;BMP180;4154;48.810;9.012;2024-02-28T05:51:11;97224.00;;;5.50
8227;BMP180;4154;48.810;9.012;2024-02-28T05:53:37;97225.00;;;5.60
8227;BMP180;4154;48.810;9.012;2024-02-28T05:56:05;97218.00;;;5.40
8227;BMP180;4154;48.810;9.012;2024-02-28T05:58:31;97219.00;;;5.40
8227;BMP180;4154;48.810;9.012;2024-02-28T06:00:57;97233.00;;;5.40
8227;BMP180;4154;48.810;9.012;2024-02-28T06:03:23;97233.00;;;5.50
8227;BMP180;4154;48.810;9.012;2024-02-28T06:05:48;97234.00;;;5.50
8227;BMP180;4154;48.810;9.012;2024-02-28T06:08:14;97240.00;;;5.40
8227;BMP180;4154;48.810;9.012;2024-02-28T06:10:41;97242.00;;;5.40
8227;BMP180;4154;48.810;9.012;2024-02-28T06:13:12;97247.00;;;5.50
8227;BMP180;4154;48.810;9.012;2024-02-28T06:15:38;97260.00;;;5.40
8227;BMP180;4154;48.810;9.012;2024-02-28T06:18:04;97264.00;;;5.50
8227;BMP180;4154;48.810;9.012;2024-02-28T06:20:30;97255.00;;;5.50
8227;BMP180;4154;48.810;9.012;2024-02-28T06:22:57;97266.00;;;5.50
8227;BMP180;4154;48.810;9.012;2024-02-28T06:25:22;97268.00;;;5.60
8227;BMP180;4154;48.810;9.012;2024-02-28T06:27:49;97267.00;;;5.60
8227;BMP180;4154;48.810;9.012;2024-02-28T06:30:16;97272.00;;;5.60
8227;BMP180;4154;48.810;9.012;2024-02-28T06:32:45;97278.00;;;5.60
8227;BMP180;4154;48.810;9.012;2024-02-28T06:35:10;97281.00;;;5.70
8227;BMP180;4154;48.810;9.012;2024-02-28T06:37:36;97283.00;;;5.70
8227;BMP180;4154;48.810;9.012;2024-02-28T06:40:03;97284.00;;;5.80
8227;BMP180;4154;48.810;9.012;2024-02-28T06:42:34;97294.00;;;5.70
8227;BMP180;4154;48.810;9.012;2024-02-28T06:45:02;97284.00;;;5.70
8227;BMP180;4154;48.810;9.012;2024-02-28T06:47:30;97296.00;;;5.70
8227;BMP180;4154;48.810;9.012;2024-02-28T06:49:55;97291.00;;;5.70
8227;BMP180;4154;48.810;9.012;2024-02-28T06:52:21;97290.00;;;5.70
8227;BMP180;4154;48.810;9.012;2024-02-28T06:54:47;97290.00;;;5.70
8227;BMP180;4154;48.810;9.012;2024-02-28T06:57:12;97291.00;;;5.80
8227;BMP180;4154;48.810;9.012;2024-02-28T06:59:38;97295.00;;;5.70
8227;BMP180;4154;48.810;9.012;2024-02-28T07:02:04;97295.00;;;5.70
8227;BMP180;4154;48.810;9.012;2024-02-28T07:04:30;97297.00;;;5.70
8227;BMP180;4154;48.810;9.012;2024-02-28T07:06:56;97309.00;;;5.80
8227;BMP180;4154;48.810;9.012;2024-02-28T07:09:22;97312.00;;;5.80
8227;BMP180;4154;48.810;9.012;2024-02-28T07:11:51;97311.00;;;5.90
8227;BMP180;4154;48.810;9.012;2024-02-28T07:14:17;97319.00;;;5.90
8227;BMP180;4154;48.810;9.012;2024-02-28T07:16:43;97327.00;;;6.00
8227;BMP180;4154;48.810;9.012;2024-02-28T07:19:09;97326.00;;;5.90
8227;BMP180;4154;48.810;9.012;2024-02-28T07:21:35;97320.00;;;5.90
8227;BMP180;4154;48.810;9.012;2024-02-28T07:24:02;97322.00;;;5.90
8227;BMP180;4154;48.810;9.012;2024-02-28T07:26:30;97324.00;;;5.90
8227;BMP180;4154;48.810;9.012;2024-02-28T07:28:55;97324.00;;;5.90
8227;BMP180;4154;48.810;9.012;2024-02-28T07:31:21;97328.00;;;5.90
8227;BMP180;4154;48.810;9.012;2024-02-28T07:33:48;97334.00;;;5.90
8227;BMP180;4154;48.810;9.012;2024-02-28T07:36:14;97342.00;;;5.90
8227;BMP180;4154;48.810;9.012;2024-02-28T07:38:42;97352.00;;;5.90
8227;BMP180;4154;48.810;9.012;2024-02-28T07:41:07;97360.00;;;5.90
8227;BMP180;4154;48.810;9.012;2024-02-28T07:43:33;97357.00;;;5.80
8227;BMP180;4154;48.810;9.012;2024-02-28T07:46:09;97361.00;;;5.90
8227;BMP180;4154;48.810;9.012;2024-02-28T07:48:37;97363.00;;;5.90
8227;BMP180;4154;48.810;9.012;2024-02-28T07:51:07;97362.00;;;5.90
8227;BMP180;4154;48.810;9.012;2024-02-28T07:53:34;97381.00;;;6.00
8227;BMP180;4154;48.810;9.012;2024-02-28T07:56:00;97371.00;;;6.00
8227;BMP180;4154;48.810;9.012;2024-02-28T07:58:26;97374.00;;;6.10
8227;BMP180;4154;48.810;9.012;2024-02-28T08:00:52;97382.00;;;6.00
8227;BMP180;4154;48.810;9.012;2024-02-28T08:03:20;97379.00;;;6.10
8227;BMP180;4154;48.810;9.012;2024-02-28T08:05:46;97380.00;;;6.00
8227;BMP180;4154;48.810;9.012;2024-02-28T08:08:14;97380.00;;;5.90
8227;BMP180;4154;48.810;9.012;2024-02-28T08:10:39;97372.00;;;6.00
8227;BMP180;4154;48.810;9.012;2024-02-28T08:13:05;97381.00;;;6.00
8227;BMP180;4154;48.810;9.012;2024-02-28T08:15:31;97384.00;;;6.00
8227;BMP180;4154;48.810;9.012;2024-02-28T08:17:58;97384.00;;;6.00
8227;BMP180;4154;48.810;9.012;2024-02-28T08:20:24;97382.00;;;6.00
8227;BMP180;4154;48.810;9.012;2024-02-28T08:22:50;97388.00;;;6.00
8227;BMP180;4154;48.810;9.012;2024-02-28T08:25:18;97386.00;;;6.00
8227;BMP180;4154;48.810;9.012;2024-02-28T08:27:44;97386.00;;;6.10
8227;BMP180;4154;48.810;9.012;2024-02-28T08:30:10;97397.00;;;6.00
8227;BMP180;4154;48.810;9.012;2024-02-28T08:32:36;97392.00;;;6.00
8227;BMP180;4154;48.810;9.012;2024-02-28T08:35:01;97391.00;;;6.00
8227;BMP180;4154;48.810;9.012;2024-02-28T08:37:27;97381.00;;;6.00
8227;BMP180;4154;48.810;9.012;2024-02-28T08:39:55;97386.00;;;6.10
8227;BMP180;4154;48.810;9.012;2024-02-28T08:42:27;97399.00;;;6.20
8227;BMP180;4154;48.810;9.012;2024-02-28T08:44:53;97382.00;;;6.20
8227;BMP180;4154;48.810;9.012;2024-02-28T08:47:26;97389.00;;;6.30
8227;BMP180;4154;48.810;9.012;2024-02-28T08:49:55;97389.00;;;6.20
8227;BMP180;4154;48.810;9.012;2024-02-28T08:52:21;97397.00;;;6.30
8227;BMP180;4154;48.810;9.012;2024-02-28T08:54:48;97402.00;;;6.20
8227;BMP180;4154;48.810;9.012;2024-02-28T08:57:14;97395.00;;;6.20
8227;BMP180;4154;48.810;9.012;2024-02-28T08:59:40;97399.00;;;6.30
8227;BMP180;4154;48.810;9.012;2024-02-28T09:02:09;97407.00;;;6.30
8227;BMP180;4154;48.810;9.012;2024-02-28T09:04:36;97404.00;;;6.30
8227;BMP180;4154;48.810;9.012;2024-02-28T09:07:02;97408.00;;;6.40
8227;BMP180;4154;48.810;9.012;2024-02-28T09:09:28;97408.00;;;6.40
8227;BMP180;4154;48.810;9.012;2024-02-28T09:11:55;97419.00;;;6.30
8227;BMP180;4154;48.810;9.012;2024-02-28T09:14:21;97421.00;;;6.40
8227;BMP180;4154;48.810;9.012;2024-02-28T09:16:47;97411.00;;;6.40
8227;BMP180;4154;48.810;9.012;2024-02-28T09:19:13;97414.00;;;6.40
8227;BMP180;4154;48.810;9.012;2024-02-28T09:21:38;97424.00;;;6.50
8227;BMP180;4154;48.810;9.012;2024-02-28T09:24:04;97427.00;;;6.60
8227;BMP180;4154;48.810;9.012;2024-02-28T09:26:30;97425.00;;;6.60
8227;BMP180;4154;48.810;9.012;2024-02-28T09:28:56;97422.00;;;6.60
8227;BMP180;4154;48.810;9.012;2024-02-28T09:31:21;97423.00;;;6.60
8227;BMP180;4154;48.810;9.012;2024-02-28T09:33:47;97418.00;;;6.60
8227;BMP180;4154;48.810;9.012;2024-02-28T09:36:14;97410.00;;;6.50
8227;BMP180;4154;48.810;9.012;2024-02-28T09:38:41;97405.00;;;6.50
8227;BMP180;4154;48.810;9.012;2024-02-28T09:41:08;97403.00;;;6.50
8227;BMP180;4154;48.810;9.012;2024-02-28T09:43:42;97415.00;;;6.50
8227;BMP180;4154;48.810;9.012;2024-02-28T09:46:09;97408.00;;;6.50
8227;BMP180;4154;48.810;9.012;2024-02-28T09:48:40;97405.00;;;6.60
8227;BMP180;4154;48.810;9.012;2024-02-28T09:51:09;97409.00;;;6.70
8227;BMP180;4154;48.810;9.012;2024-02-28T09:53:36;97417.00;;;6.80
8227;BMP180;4154;48.810;9.012;2024-02-28T09:56:02;97424.00;;;6.80
8227;BMP180;4154;48.810;9.012;2024-02-28T09:58:30;97431.00;;;6.70
8227;BMP180;4154;48.810;9.012;2024-02-28T10:00:59;97424.00;;;6.70
8227;BMP180;4154;48.810;9.012;2024-02-28T10:03:30;97427.00;;;6.80
8227;BMP180;4154;48.810;9.012;2024-02-28T10:05:56;97421.00;;;6.80
8227;BMP180;4154;48.810;9.012;2024-02-28T10:08:22;97418.00;;;6.80
8227;BMP180;4154;48.810;9.012;2024-02-28T10:10:49;97433.00;;;6.90
8227;BMP180;4154;48.810;9.012;2024-02-28T10:13:17;97431.00;;;6.90
8227;BMP180;4154;48.810;9.012;2024-02-28T10:15:44;97430.00;;;7.00
8227;BMP180;4154;48.810;9.012;2024-02-28T10:18:10;97438.00;;;7.00
8227;BMP180;4154;48.810;9.012;2024-02-28T10:20:36;97440.00;;;7.00
8227;BMP180;4154;48.810;9.012;2024-02-28T10:23:05;97439.00;;;7.00
8227;BMP180;4154;48.810;9.012;2024-02-28T10:25:44;97439.00;;;7.00
8227;BMP180;4154;48.810;9.012;2024-02-28T10:28:11;97446.00;;;7.10
8227;BMP180;4154;48.810;9.012;2024-02-28T10:30:41;97441.00;;;7.10
8227;BMP180;4154;48.810;9.012;2024-02-28T10:33:14;97449.00;;;7.10
8227;BMP180;4154;48.810;9.012;2024-02-28T10:35:41;97458.00;;;7.20
8227;BMP180;4154;48.810;9.012;2024-02-28T10:38:10;97455.00;;;7.20
8227;BMP180;4154;48.810;9.012;2024-02-28T10:40:37;97466.00;;;7.20
8227;BMP180;4154;48.810;9.012;2024-02-28T10:43:04;97460.00;;;7.20
8227;BMP180;4154;48.810;9.012;2024-02-28T10:45:31;97459.00;;;7.10
8227;BMP180;4154;48.810;9.012;2024-02-28T10:47:57;97464.00;;;7.10
8227;BMP180;4154;48.810;9.012;2024-02-28T10:50:22;97466.00;;;7.10
8227;BMP180;4154;48.810;9.012;2024-02-28T10:52:51;97457.00;;;7.20
8227;BMP180;4154;48.810;9.012;2024-02-28T10:55:24;97461.00;;;7.10
8227;BMP180;4154;48.810;9.012;2024-02-28T10:58:02;97466.00;;;7.10
8227;BMP180;4154;48.810;9.012;2024-02-28T11:00:30;97463.00;;;7.20
8227;BMP180;4154;48.810;9.012;2024-02-28T11:02:58;97485.00;;;7.10
8227;BMP180;4154;48.810;9.012;2024-02-28T11:05:39;97486.00;;;7.10
8227;BMP180;4154;48.810;9.012;2024-02-28T11:08:20;97484.00;;;7.20
8227;BMP180;4154;48.810;9.012;2024-02-28T11:10:46;97483.00;;;7.20
8227;BMP180;4154;48.810;9.012;2024-02-28T11:13:26;97482.00;;;7.10
8227;BMP180;4154;48.810;9.012;2024-02-28T11:15:53;97480.00;;;7.10
8227;BMP180;4154;48.810;9.012;2024-02-28T11:18:18;97495.00;;;7.10
8227;BMP180;4154;48.810;9.012;2024-02-28T11:20:45;97495.00;;;7.10
8227;BMP180;4154;48.810;9.012;2024-02-28T11:23:14;97504.00;;;7.20
8227;BMP180;4154;48.810;9.012;2024-02-28T11:25:43;97500.00;;;7.10
8227;BMP180;4154;48.810;9.012;2024-02-28T11:28:09;97496.00;;;7.10
8227;BMP180;4154;48.810;9.012;2024-02-28T11:30:35;97496.00;;;7.10
8227;BMP180;4154;48.810;9.012;2024-02-28T11:33:01;97495.00;;;7.20
8227;BMP180;4154;48.810;9.012;2024-02-28T11:35:28;97500.00;;;7.20
8227;BMP180;4154;48.810;9.012;2024-02-28T11:37:56;97489.00;;;7.20
8227;BMP180;4154;48.810;9.012;2024-02-28T11:40:24;97491.00;;;7.20
8227;BMP180;4154;48.810;9.012;2024-02-28T11:42:52;97487.00;;;7.20
8227;BMP180;4154;48.810;9.012;2024-02-28T11:45:18;97480.00;;;7.30
8227;BMP180;4154;48.810;9.012;2024-02-28T11:47:44;97484.00;;;7.20
8227;BMP180;4154;48.810;9.012;2024-02-28T11:50:10;97491.00;;;7.20
8227;BMP180;4154;48.810;9.012;2024-02-28T11:52:36;97477.00;;;7.20
8227;BMP180;4154;48.810;9.012;2024-02-28T11:55:03;97484.00;;;7.20
8227;BMP180;4154;48.810;9.012;2024-02-28T11:57:30;97490.00;;;7.10
8227;BMP180;4154;48.810;9.012;2024-02-28T12:00:08;97493.00;;;7.20
8227;BMP180;4154;48.810;9.012;2024-02-28T12:02:38;97484.00;;;7.10
8227;BMP180;4154;48.810;9.012;2024-02-28T12:05:04;97490.00;;;7.20
8227;BMP180;4154;48.810;9.012;2024-02-28T12:07:31;97485.00;;;7.30
8227;BMP180;4154;48.810;9.012;2024-02-28T12:09:58;97478.00;;;7.20
8227;BMP180;4154;48.810;9.012;2024-02-28T12:12:24;97473.00;;;7.30
8227;BMP180;4154;48.810;9.012;2024-02-28T12:14:50;97480.00;;;7.20
8227;BMP180;4154;48.810;9.012;2024-02-28T12:17:17;97471.00;;;7.20
8227;BMP180;4154;48.810;9.012;2024-02-28T12:19:42;97477.00;;;7.30
8227;BMP180;4154;48.810;9.012;2024-02-28T12:22:09;97480.00;;;7.30
8227;BMP180;4154;48.810;9.012;2024-02-28T12:24:34;97482.00;;;7.40
8227;BMP180;4154;48.810;9.012;2024-02-28T12:27:00;97482.00;;;7.40
8227;BMP180;4154;48.810;9.012;2024-02-28T12:29:26;97469.00;;;7.30
8227;BMP180;4154;48.810;9.012;2024-02-28T12:31:52;97462.00;;;7.30
8227;BMP180;4154;48.810;9.012;2024-02-28T12:34:18;97471.00;;;7.30
8227;BMP180;4154;48.810;9.012;2024-02-28T12:36:43;97460.00;;;7.30
8227;BMP180;4154;48.810;9.012;2024-02-28T12:39:09;97471.00;;;7.20
8227;BMP180;4154;48.810;9.012;2024-02-28T12:41:38;97457.00;;;7.30
8227;BMP180;4154;48.810;9.012;2024-02-28T12:44:07;97464.00;;;7.30
8227;BMP180;4154;48.810;9.012;2024-02-28T12:46:34;97459.00;;;7.20
8227;BMP180;4154;48.810;9.012;2024-02-28T12:49:00;97458.00;;;7.20
8227;BMP180;4154;48.810;9.012;2024-02-28T12:51:40;97464.00;;;7.20
8227;BMP180;4154;48.810;9.012;2024-02-28T12:54:07;97469.00;;;7.30
8227;BMP180;4154;48.810;9.012;2024-02-28T12:56:40;97451.00;;;7.30
8227;BMP180;4154;48.810;9.012;2024-02-28T12:59:08;97443.00;;;7.20
8227;BMP180;4154;48.810;9.012;2024-02-28T13:01:34;97454.00;;;7.20
8227;BMP180;4154;48.810;9.012;2024-02-28T13:04:00;97458.00;;;7.30
8227;BMP180;4154;48.810;9.012;2024-02-28T13:06:26;97456.00;;;7.40
8227;BMP180;4154;48.810;9.012;2024-02-28T13:08:52;97451.00;;;7.30
8227;BMP180;4154;48.810;9.012;2024-02-28T13:11:19;97458.00;;;7.30
8227;BMP180;4154;48.810;9.012;2024-02-28T13:13:47;97444.00;;;7.30
8227;BMP180;4154;48.810;9.012;2024-02-28T13:16:13;97449.00;;;7.30
8227;BMP180;4154;48.810;9.012;2024-02-28T13:18:39;97440.00;;;7.20
8227;BMP180;4154;48.810;9.012;2024-02-28T13:21:04;97457.00;;;7.20
8227;BMP180;4154;48.810;9.012;2024-02-28T13:23:30;97459.00;;;7.10
8227;BMP180;4154;48.810;9.012;2024-02-28T13:26:00;97459.00;;;7.00
8227;BMP180;4154;48.810;9.012;2024-02-28T13:28:27;97455.00;;;7.00
8227;BMP180;4154;48.810;9.012;2024-02-28T13:31:00;97457.00;;;7.20
8227;BMP180;4154;48.810;9.012;2024-02-28T13:33:27;97447.00;;;7.20
8227;BMP180;4154;48.810;9.012;2024-02-28T13:35:53;97463.00;;;7.10
8227;BMP180;4154;48.810;9.012;2024-02-28T13:38:20;97456.00;;;7.20
8227;BMP180;4154;48.810;9.012;2024-02-28T13:40:47;97450.00;;;7.40
8227;BMP180;4154;48.810;9.012;2024-02-28T13:43:13;97451.00;;;7.40
8227;BMP180;4154;48.810;9.012;2024-02-28T13:45:40;97441.00;;;7.40
8227;BMP180;4154;48.810;9.012;2024-02-28T13:48:18;97437.00;;;7.30
8227;BMP180;4154;48.810;9.012;2024-02-28T13:50:46;97420.00;;;7.30
8227;BMP180;4154;48.810;9.012;2024-02-28T13:53:13;97433.00;;;7.30
8227;BMP180;4154;48.810;9.012;2024-02-28T13:55:46;97432.00;;;7.40
8227;BMP180;4154;48.810;9.012;2024-02-28T13:58:13;97432.00;;;7.40
8227;BMP180;4154;48.810;9.012;2024-02-28T14:00:39;97427.00;;;7.40
8227;BMP180;4154;48.810;9.012;2024-02-28T14:03:06;97444.00;;;7.40
8227;BMP180;4154;48.810;9.012;2024-02-28T14:05:32;97439.00;;;7.40
8227;BMP180;4154;48.810;9.012;2024-02-28T14:07:58;97438.00;;;7.40
8227;BMP180;4154;48.810;9.012;2024-02-28T14:10:25;97435.00;;;7.50
8227;BMP180;4154;48.810;9.012;2024-02-28T14:12:51;97438.00;;;7.50
8227;BMP180;4154;48.810;9.012;2024-02-28T14:15:21;97448.00;;;7.40
8227;BMP180;4154;48.810;9.012;2024-02-28T14:17:50;97437.00;;;7.40
8227;BMP180;4154;48.810;9.012;2024-02-28T14:20:17;97434.00;;;7.40
8227;BMP180;4154;48.810;9.012;2024-02-28T14:22:43;97436.00;;;7.40
8227;BMP180;4154;48.810;9.012;2024-02-28T14:25:15;97440.00;;;7.50
8227;BMP180;4154;48.810;9.012;2024-02-28T14:27:45;97445.00;;;7.50
8227;BMP180;4154;48.810;9.012;2024-02-28T14:30:12;97446.00;;;7.50
8227;BMP180;4154;48.810;9.012;2024-02-28T14:32:40;97443.00;;;7.50
8227;BMP180;4154;48.810;9.012;2024-02-28T14:35:07;97448.00;;;7.50
8227;BMP180;4154;48.810;9.012;2024-02-28T14:37:37;97445.00;;;7.60
8227;BMP180;4154;48.810;9.012;2024-02-28T14:40:05;97446.00;;;7.50
8227;BMP180;4154;48.810;9.012;2024-02-28T14:42:42;97438.00;;;7.60
8227;BMP180;4154;48.810;9.012;2024-02-28T14:45:10;97444.00;;;7.60
8227;BMP180;4154;48.810;9.012;2024-02-28T14:47:36;97445.00;;;7.70